<?xml version='1.0' encoding='UTF-8'?>
<gpx xmlns="http://www.topografix.com/GPX/1/1" creator="www.balnam.be" version="1.1" xmlns:xsi="http://www.w3.org/2001/XMLSchema-instance" xsi:schemaLocation="http://www.topografix.com/GPX/1/1 http://www.topografix.com/GPX/1/1/gpx.xsd">
<trk>
<name>bgnvgi14</name>
<cmt>r</cmt>
<desc>Vieux-Genappe Chemin n°i14 Rue du Baty des Morts</desc>
<link href="https://chemins.be/vieuxgenappe/chemin/i14"/><trkseg>
<trkpt lat="50.616081" lon="4.412622"><time>2026-05-02T22:52:03Z</time></trkpt>
<trkpt lat="50.616341" lon="4.414615"><time>2026-05-02T23:02:03Z</time></trkpt>
<trkpt lat="50.616295" lon="4.417949"><time>2026-05-02T23:12:03Z</time></trkpt>
<trkpt lat="50.616554" lon="4.420677"><time>2026-05-02T23:22:03Z</time></trkpt>
<trkpt lat="50.617317" lon="4.424846"><time>2026-05-02T23:32:03Z</time></trkpt>
<trkpt lat="50.619227" lon="4.430320"><time>2026-05-02T23:42:03Z</time></trkpt>
<trkpt lat="50.619208" lon="4.431216"><time>2026-05-02T23:52:03Z</time></trkpt>
<trkpt lat="50.619519" lon="4.432020"><time>2026-05-03T00:02:03Z</time></trkpt>
<trkpt lat="50.619825" lon="4.432113"><time>2026-05-03T00:12:03Z</time></trkpt>
</trkseg></trk>
<trk>
<name>bgnvgi14</name>
<cmt>d</cmt>
<desc>Vieux-Genappe Chemin n°i14 Rue du Baty des Morts</desc>
<link href="https://chemins.be/vieuxgenappe/chemin/i14"/><trkseg>
<trkpt lat="50.619825" lon="4.432113"><time>2026-05-03T00:12:03Z</time></trkpt>
<trkpt lat="50.620368" lon="4.434148"><time>2026-05-03T00:22:03Z</time></trkpt>
<trkpt lat="50.620541" lon="4.435199"><time>2026-05-03T00:32:03Z</time></trkpt>
<trkpt lat="50.620432" lon="4.436508"><time>2026-05-03T00:42:03Z</time></trkpt>
</trkseg></trk>
<trk>
<name>bgnvgi14</name>
<cmt>v</cmt>
<desc>Vieux-Genappe Chemin n°i14 Rue du Baty des Morts</desc>
<link href="https://chemins.be/vieuxgenappe/chemin/i14"/><trkseg>
<trkpt lat="50.620432" lon="4.436508"><time>2026-05-03T00:42:03Z</time></trkpt>
<trkpt lat="50.620141" lon="4.437435"><time>2026-05-03T00:52:03Z</time></trkpt>
</trkseg></trk>
<trk>
<name>bgnvgi14</name>
<cmt>r</cmt>
<desc>Vieux-Genappe Chemin n°i14 Rue du Baty des Morts</desc>
<link href="https://chemins.be/vieuxgenappe/chemin/i14"/><trkseg>
<trkpt lat="50.620141" lon="4.437435"><time>2026-05-03T00:52:03Z</time></trkpt>
<trkpt lat="50.620073" lon="4.439524"><time>2026-05-03T01:02:03Z</time></trkpt>
<trkpt lat="50.620050" lon="4.439935"><time>2026-05-03T01:12:03Z</time></trkpt>
<trkpt lat="50.620091" lon="4.440078"><time>2026-05-03T01:22:03Z</time></trkpt>
</trkseg></trk>
<trk>
<name>bgnvgi14</name>
<cmt>s</cmt>
<desc>Vieux-Genappe Chemin n°i14 Rue du Baty des Morts</desc>
<link href="https://chemins.be/vieuxgenappe/chemin/i14"/><trkseg>
<trkpt lat="50.620091" lon="4.440078"><time>2026-05-03T01:22:03Z</time></trkpt>
<trkpt lat="50.620131" lon="4.440676"><time>2026-05-03T01:32:03Z</time></trkpt>
</trkseg></trk>
<trk>
<name>bgnvgi14</name>
<cmt>d</cmt>
<desc>Vieux-Genappe Chemin n°i14 Rue du Baty des Morts</desc>
<link href="https://chemins.be/vieuxgenappe/chemin/i14"/><trkseg>
<trkpt lat="50.620131" lon="4.440676"><time>2026-05-03T01:32:03Z</time></trkpt>
<trkpt lat="50.620510" lon="4.440940"><time>2026-05-03T01:42:03Z</time></trkpt>
<trkpt lat="50.620941" lon="4.441587"><time>2026-05-03T01:52:03Z</time></trkpt>
<trkpt lat="50.621298" lon="4.442416"><time>2026-05-03T02:02:03Z</time></trkpt>
</trkseg></trk>
<trk>
<name>bgnvgi14</name>
<cmt>v</cmt>
<desc>Vieux-Genappe Chemin n°i14 Rue du Baty des Morts</desc>
<link href="https://chemins.be/vieuxgenappe/chemin/i14"/><trkseg>
<trkpt lat="50.621298" lon="4.442416"><time>2026-05-03T02:02:03Z</time></trkpt>
<trkpt lat="50.621419" lon="4.443209"><time>2026-05-03T02:12:03Z</time></trkpt>
<trkpt lat="50.621396" lon="4.444649"><time>2026-05-03T02:22:03Z</time></trkpt>
<trkpt lat="50.621340" lon="4.446557"><time>2026-05-03T02:32:03Z</time></trkpt>
<trkpt lat="50.621126" lon="4.448726"><time>2026-05-03T02:42:03Z</time></trkpt>
</trkseg>
</trk>
</gpx>